KCDC/CDC METAR and TAF weather

Enter ICAO airport designator
Station Type Date Time Source
KCDC METAR 2019/04/24 21:53 UTC NOAA

KCDC 242153Z AUTO 36009KT 10SM CLR 22/02 A3009 RMK AO2 SLP143 T02220022


Station Type Date Time Source
KCDC Decoded METAR 2019/04/24 21:53 UTC NOAA

CEDAR CITY MUN AIRPORT, UT, United States (KCDC) 37-42N 113-06W 1714M
Apr 24, 2019 - 05:53 PM EDT / 2019.04.24 2153 UTC
Wind: from the N (360 degrees) at 10 MPH (9 KT):0
Visibility: 10 mile(s):0
Sky conditions: clear
Temperature: 72.0 F (22.2 C)
Dew Point: 36.0 F (2.2 C)
Relative Humidity: 26%
Pressure (altimeter): 30.09 in. Hg (1018 hPa)
ob: KCDC 242153Z AUTO 36009KT 10SM CLR 22/02 A3009 RMK AO2 SLP143 T02220022
cycle: 22

Station Type Date Time Source
KCDC TAF 2019/04/24 18:36 UTC NOAA

TAF KCDC 241734Z 2418/2518 02005KT P6SM SKC
FM242000 35009KT P6SM FEW150
FM250200 02006KT P6SM SCT200

Example: see airport list